sensor_id;sensor_type;location;lat;lon;timestamp;P1;durP1;ratioP1;P2;durP2;ratioP2
68377;SDS011;55322;48.146;11.516;2023-12-20T00:00:15;6.00;;;1.73;;
68377;SDS011;55322;48.146;11.516;2023-12-20T00:02:41;5.43;;;1.73;;
68377;SDS011;55322;48.146;11.516;2023-12-20T00:05:10;6.07;;;1.75;;
68377;SDS011;55322;48.146;11.516;2023-12-20T00:07:35;5.70;;;1.50;;
68377;SDS011;55322;48.146;11.516;2023-12-20T00:10:00;6.27;;;1.37;;
68377;SDS011;55322;48.146;11.516;2023-12-20T00:12:26;4.97;;;1.40;;
68377;SDS011;55322;48.146;11.516;2023-12-20T00:14:51;6.38;;;1.60;;
68377;SDS011;55322;48.146;11.516;2023-12-20T00:17:16;5.40;;;1.63;;
68377;SDS011;55322;48.146;11.516;2023-12-20T00:19:42;5.57;;;1.33;;
68377;SDS011;55322;48.146;11.516;2023-12-20T00:22:07;6.37;;;1.50;;
68377;SDS011;55322;48.146;11.516;2023-12-20T00:24:32;7.63;;;1.50;;
68377;SDS011;55322;48.146;11.516;2023-12-20T00:26:58;5.47;;;1.23;;
68377;SDS011;55322;48.146;11.516;2023-12-20T00:29:23;4.80;;;1.17;;
68377;SDS011;55322;48.146;11.516;2023-12-20T00:31:48;6.47;;;1.30;;
68377;SDS011;55322;48.146;11.516;2023-12-20T00:34:14;6.43;;;1.50;;
68377;SDS011;55322;48.146;11.516;2023-12-20T00:36:39;5.30;;;1.30;;
68377;SDS011;55322;48.146;11.516;2023-12-20T00:39:04;4.50;;;1.30;;
68377;SDS011;55322;48.146;11.516;2023-12-20T00:41:31;7.13;;;1.27;;
68377;SDS011;55322;48.146;11.516;2023-12-20T00:43:57;6.10;;;1.27;;
68377;SDS011;55322;48.146;11.516;2023-12-20T00:46:22;4.63;;;1.00;;
68377;SDS011;55322;48.146;11.516;2023-12-20T00:48:48;5.60;;;1.30;;
68377;SDS011;55322;48.146;11.516;2023-12-20T00:51:13;5.20;;;1.23;;
68377;SDS011;55322;48.146;11.516;2023-12-20T00:53:38;4.93;;;1.13;;
68377;SDS011;55322;48.146;11.516;2023-12-20T00:56:04;4.97;;;1.00;;
68377;SDS011;55322;48.146;11.516;2023-12-20T00:58:29;4.43;;;1.00;;
68377;SDS011;55322;48.146;11.516;2023-12-20T01:00:55;5.80;;;1.33;;
68377;SDS011;55322;48.146;11.516;2023-12-20T01:03:20;5.07;;;1.10;;
68377;SDS011;55322;48.146;11.516;2023-12-20T01:05:45;4.40;;;1.00;;
68377;SDS011;55322;48.146;11.516;2023-12-20T01:08:11;4.90;;;1.20;;
68377;SDS011;55322;48.146;11.516;2023-12-20T01:10:37;4.70;;;0.93;;
68377;SDS011;55322;48.146;11.516;2023-12-20T01:13:03;4.60;;;1.17;;
68377;SDS011;55322;48.146;11.516;2023-12-20T01:15:28;4.30;;;0.80;;
68377;SDS011;55322;48.146;11.516;2023-12-20T01:17:54;4.87;;;1.00;;
68377;SDS011;55322;48.146;11.516;2023-12-20T01:20:19;4.07;;;0.77;;
68377;SDS011;55322;48.146;11.516;2023-12-20T01:22:45;4.60;;;1.10;;
68377;SDS011;55322;48.146;11.516;2023-12-20T01:25:11;4.80;;;1.30;;
68377;SDS011;55322;48.146;11.516;2023-12-20T01:27:36;4.80;;;1.00;;
68377;SDS011;55322;48.146;11.516;2023-12-20T01:30:02;4.40;;;0.90;;
68377;SDS011;55322;48.146;11.516;2023-12-20T01:32:27;4.37;;;1.10;;
68377;SDS011;55322;48.146;11.516;2023-12-20T01:34:52;5.10;;;1.00;;
68377;SDS011;55322;48.146;11.516;2023-12-20T01:37:18;4.73;;;1.03;;
68377;SDS011;55322;48.146;11.516;2023-12-20T01:39:43;4.57;;;0.80;;
68377;SDS011;55322;48.146;11.516;2023-12-20T01:42:08;5.03;;;0.90;;
68377;SDS011;55322;48.146;11.516;2023-12-20T01:44:34;5.17;;;0.80;;
68377;SDS011;55322;48.146;11.516;2023-12-20T01:46:59;3.93;;;0.73;;
68377;SDS011;55322;48.146;11.516;2023-12-20T01:49:25;4.50;;;0.73;;
68377;SDS011;55322;48.146;11.516;2023-12-20T01:51:50;4.27;;;0.80;;
68377;SDS011;55322;48.146;11.516;2023-12-20T01:54:16;4.03;;;0.60;;
68377;SDS011;55322;48.146;11.516;2023-12-20T01:56:44;4.13;;;0.77;;
68377;SDS011;55322;48.146;11.516;2023-12-20T01:59:10;4.05;;;0.73;;
68377;SDS011;55322;48.146;11.516;2023-12-20T02:01:35;4.00;;;0.60;;
68377;SDS011;55322;48.146;11.516;2023-12-20T02:04:01;4.23;;;0.83;;
68377;SDS011;55322;48.146;11.516;2023-12-20T02:06:28;3.92;;;0.80;;
68377;SDS011;55322;48.146;11.516;2023-12-20T02:08:56;4.13;;;0.77;;
68377;SDS011;55322;48.146;11.516;2023-12-20T02:11:22;4.60;;;0.80;;
68377;SDS011;55322;48.146;11.516;2023-12-20T02:13:48;4.03;;;0.60;;
68377;SDS011;55322;48.146;11.516;2023-12-20T02:16:13;4.10;;;0.70;;
68377;SDS011;55322;48.146;11.516;2023-12-20T02:18:39;4.13;;;0.83;;
68377;SDS011;55322;48.146;11.516;2023-12-20T02:21:05;5.07;;;0.67;;
68377;SDS011;55322;48.146;11.516;2023-12-20T02:23:30;4.43;;;0.90;;
68377;SDS011;55322;48.146;11.516;2023-12-20T02:25:56;4.80;;;0.50;;
68377;SDS011;55322;48.146;11.516;2023-12-20T02:28:21;3.67;;;0.50;;
68377;SDS011;55322;48.146;11.516;2023-12-20T02:30:47;3.27;;;0.50;;
68377;SDS011;55322;48.146;11.516;2023-12-20T02:33:14;3.42;;;0.50;;
68377;SDS011;55322;48.146;11.516;2023-12-20T02:35:40;3.08;;;0.40;;
68377;SDS011;55322;48.146;11.516;2023-12-20T02:38:06;3.23;;;0.57;;
68377;SDS011;55322;48.146;11.516;2023-12-20T02:40:31;3.20;;;0.60;;
68377;SDS011;55322;48.146;11.516;2023-12-20T02:42:57;2.67;;;0.40;;
68377;SDS011;55322;48.146;11.516;2023-12-20T02:45:22;2.97;;;0.40;;
68377;SDS011;55322;48.146;11.516;2023-12-20T02:47:48;3.67;;;0.60;;
68377;SDS011;55322;48.146;11.516;2023-12-20T02:50:13;2.97;;;0.50;;
68377;SDS011;55322;48.146;11.516;2023-12-20T02:52:38;3.23;;;0.50;;
68377;SDS011;55322;48.146;11.516;2023-12-20T02:55:04;3.57;;;0.50;;
68377;SDS011;55322;48.146;11.516;2023-12-20T02:57:29;2.40;;;0.40;;
68377;SDS011;55322;48.146;11.516;2023-12-20T02:59:55;3.43;;;0.53;;
68377;SDS011;55322;48.146;11.516;2023-12-20T03:02:20;2.75;;;0.50;;
68377;SDS011;55322;48.146;11.516;2023-12-20T03:04:45;2.97;;;0.40;;
68377;SDS011;55322;48.146;11.516;2023-12-20T03:07:11;2.77;;;0.37;;
68377;SDS011;55322;48.146;11.516;2023-12-20T03:09:37;4.50;;;0.93;;
68377;SDS011;55322;48.146;11.516;2023-12-20T03:12:02;2.70;;;0.40;;
68377;SDS011;55322;48.146;11.516;2023-12-20T03:14:28;3.43;;;0.60;;
68377;SDS011;55322;48.146;11.516;2023-12-20T03:16:53;2.53;;;0.33;;
68377;SDS011;55322;48.146;11.516;2023-12-20T03:19:19;2.97;;;0.43;;
68377;SDS011;55322;48.146;11.516;2023-12-20T03:21:44;2.87;;;0.43;;
68377;SDS011;55322;48.146;11.516;2023-12-20T03:24:10;3.70;;;0.60;;
68377;SDS011;55322;48.146;11.516;2023-12-20T03:26:35;2.97;;;0.43;;
68377;SDS011;55322;48.146;11.516;2023-12-20T03:29:00;2.80;;;0.40;;
68377;SDS011;55322;48.146;11.516;2023-12-20T03:31:26;2.70;;;0.40;;
68377;SDS011;55322;48.146;11.516;2023-12-20T03:33:51;2.70;;;0.40;;
68377;SDS011;55322;48.146;11.516;2023-12-20T03:36:18;3.13;;;0.50;;
68377;SDS011;55322;48.146;11.516;2023-12-20T03:38:44;2.90;;;0.40;;
68377;SDS011;55322;48.146;11.516;2023-12-20T03:41:09;2.67;;;0.40;;
68377;SDS011;55322;48.146;11.516;2023-12-20T03:43:36;3.35;;;0.40;;
68377;SDS011;55322;48.146;11.516;2023-12-20T03:46:02;2.67;;;0.40;;
68377;SDS011;55322;48.146;11.516;2023-12-20T03:48:28;3.88;;;0.52;;
68377;SDS011;55322;48.146;11.516;2023-12-20T03:50:54;2.73;;;0.50;;
68377;SDS011;55322;48.146;11.516;2023-12-20T03:53:20;2.73;;;0.40;;
68377;SDS011;55322;48.146;11.516;2023-12-20T03:55:45;3.25;;;0.40;;
68377;SDS011;55322;48.146;11.516;2023-12-20T03:58:10;2.73;;;0.40;;
68377;SDS011;55322;48.146;11.516;2023-12-20T04:00:36;3.40;;;0.50;;
68377;SDS011;55322;48.146;11.516;2023-12-20T04:03:01;2.87;;;0.40;;
68377;SDS011;55322;48.146;11.516;2023-12-20T04:05:27;3.45;;;0.50;;
68377;SDS011;55322;48.146;11.516;2023-12-20T04:07:52;3.23;;;0.50;;
68377;SDS011;55322;48.146;11.516;2023-12-20T04:10:17;2.70;;;0.40;;
68377;SDS011;55322;48.146;11.516;2023-12-20T04:12:43;2.50;;;0.40;;
68377;SDS011;55322;48.146;11.516;2023-12-20T04:15:08;3.20;;;0.50;;
68377;SDS011;55322;48.146;11.516;2023-12-20T04:17:34;2.70;;;0.38;;
68377;SDS011;55322;48.146;11.516;2023-12-20T04:20:01;2.80;;;0.40;;
68377;SDS011;55322;48.146;11.516;2023-12-20T04:22:27;3.03;;;0.43;;
68377;SDS011;55322;48.146;11.516;2023-12-20T04:24:52;3.43;;;0.60;;
68377;SDS011;55322;48.146;11.516;2023-12-20T04:27:17;3.60;;;0.60;;
68377;SDS011;55322;48.146;11.516;2023-12-20T04:29:43;3.43;;;0.50;;
68377;SDS011;55322;48.146;11.516;2023-12-20T04:32:08;4.90;;;0.70;;
68377;SDS011;55322;48.146;11.516;2023-12-20T04:34:33;3.87;;;0.80;;
68377;SDS011;55322;48.146;11.516;2023-12-20T04:36:59;3.20;;;0.50;;
68377;SDS011;55322;48.146;11.516;2023-12-20T04:39:26;3.60;;;0.73;;
68377;SDS011;55322;48.146;11.516;2023-12-20T04:41:52;3.22;;;0.60;;
68377;SDS011;55322;48.146;11.516;2023-12-20T04:44:17;3.43;;;0.53;;
68377;SDS011;55322;48.146;11.516;2023-12-20T04:46:43;3.10;;;0.60;;
68377;SDS011;55322;48.146;11.516;2023-12-20T04:49:08;3.58;;;0.68;;
68377;SDS011;55322;48.146;11.516;2023-12-20T04:51:34;5.23;;;0.90;;
68377;SDS011;55322;48.146;11.516;2023-12-20T04:53:59;4.03;;;0.80;;
68377;SDS011;55322;48.146;11.516;2023-12-20T04:56:25;4.00;;;0.73;;
68377;SDS011;55322;48.146;11.516;2023-12-20T04:58:51;4.10;;;0.90;;
68377;SDS011;55322;48.146;11.516;2023-12-20T05:01:16;6.10;;;1.17;;
68377;SDS011;55322;48.146;11.516;2023-12-20T05:03:42;4.38;;;0.95;;
68377;SDS011;55322;48.146;11.516;2023-12-20T05:06:09;4.60;;;1.03;;
68377;SDS011;55322;48.146;11.516;2023-12-20T05:08:34;5.45;;;1.27;;
68377;SDS011;55322;48.146;11.516;2023-12-20T05:11:00;5.10;;;1.30;;
68377;SDS011;55322;48.146;11.516;2023-12-20T05:13:25;6.53;;;1.50;;
68377;SDS011;55322;48.146;11.516;2023-12-20T05:15:51;4.57;;;1.30;;
68377;SDS011;55322;48.146;11.516;2023-12-20T05:18:16;4.95;;;1.35;;
68377;SDS011;55322;48.146;11.516;2023-12-20T05:20:41;5.27;;;1.37;;
68377;SDS011;55322;48.146;11.516;2023-12-20T05:23:07;6.03;;;1.30;;
68377;SDS011;55322;48.146;11.516;2023-12-20T05:25:33;5.65;;;1.30;;
68377;SDS011;55322;48.146;11.516;2023-12-20T05:27:58;4.97;;;1.40;;
68377;SDS011;55322;48.146;11.516;2023-12-20T05:30:23;6.27;;;1.63;;
68377;SDS011;55322;48.146;11.516;2023-12-20T05:32:49;5.13;;;1.40;;
68377;SDS011;55322;48.146;11.516;2023-12-20T05:35:14;4.90;;;1.30;;
68377;SDS011;55322;48.146;11.516;2023-12-20T05:37:40;5.32;;;1.45;;
68377;SDS011;55322;48.146;11.516;2023-12-20T05:40:06;5.05;;;1.38;;
68377;SDS011;55322;48.146;11.516;2023-12-20T05:42:35;5.20;;;1.33;;
68377;SDS011;55322;48.146;11.516;2023-12-20T05:45:00;5.32;;;1.30;;
68377;SDS011;55322;48.146;11.516;2023-12-20T05:47:26;5.97;;;1.60;;
68377;SDS011;55322;48.146;11.516;2023-12-20T05:49:51;5.20;;;1.50;;
68377;SDS011;55322;48.146;11.516;2023-12-20T05:52:16;6.13;;;1.30;;
68377;SDS011;55322;48.146;11.516;2023-12-20T05:54:42;4.30;;;1.05;;
68377;SDS011;55322;48.146;11.516;2023-12-20T05:57:07;4.97;;;1.15;;
68377;SDS011;55322;48.146;11.516;2023-12-20T05:59:33;4.60;;;1.30;;
68377;SDS011;55322;48.146;11.516;2023-12-20T06:01:58;4.90;;;1.40;;
68377;SDS011;55322;48.146;11.516;2023-12-20T06:04:23;4.37;;;0.93;;
68377;SDS011;55322;48.146;11.516;2023-12-20T06:06:49;5.00;;;1.30;;
68377;SDS011;55322;48.146;11.516;2023-12-20T06:09:14;4.53;;;1.23;;
68377;SDS011;55322;48.146;11.516;2023-12-20T06:11:40;4.30;;;1.13;;
68377;SDS011;55322;48.146;11.516;2023-12-20T06:14:05;6.35;;;1.60;;
68377;SDS011;55322;48.146;11.516;2023-12-20T06:16:31;4.20;;;1.03;;
68377;SDS011;55322;48.146;11.516;2023-12-20T06:18:56;4.53;;;1.13;;
68377;SDS011;55322;48.146;11.516;2023-12-20T06:21:22;5.90;;;1.30;;
68377;SDS011;55322;48.146;11.516;2023-12-20T06:23:47;5.55;;;1.23;;
68377;SDS011;55322;48.146;11.516;2023-12-20T06:26:13;5.97;;;1.50;;
68377;SDS011;55322;48.146;11.516;2023-12-20T06:28:38;4.37;;;1.20;;
68377;SDS011;55322;48.146;11.516;2023-12-20T06:31:03;4.93;;;1.40;;
68377;SDS011;55322;48.146;11.516;2023-12-20T06:33:29;5.23;;;1.57;;
68377;SDS011;55322;48.146;11.516;2023-12-20T06:35:56;6.20;;;1.60;;
68377;SDS011;55322;48.146;11.516;2023-12-20T06:38:22;5.20;;;1.30;;
68377;SDS011;55322;48.146;11.516;2023-12-20T06:40:47;5.03;;;1.20;;
68377;SDS011;55322;48.146;11.516;2023-12-20T06:43:12;4.80;;;1.33;;
68377;SDS011;55322;48.146;11.516;2023-12-20T06:45:38;4.97;;;1.55;;
68377;SDS011;55322;48.146;11.516;2023-12-20T06:48:04;5.70;;;1.20;;
68377;SDS011;55322;48.146;11.516;2023-12-20T06:50:29;5.15;;;1.40;;
68377;SDS011;55322;48.146;11.516;2023-12-20T06:52:55;5.70;;;1.30;;
68377;SDS011;55322;48.146;11.516;2023-12-20T06:55:20;5.10;;;1.10;;
68377;SDS011;55322;48.146;11.516;2023-12-20T06:57:46;5.57;;;1.40;;
68377;SDS011;55322;48.146;11.516;2023-12-20T07:00:11;7.20;;;1.38;;
68377;SDS011;55322;48.146;11.516;2023-12-20T07:02:37;5.20;;;1.30;;
68377;SDS011;55322;48.146;11.516;2023-12-20T07:05:02;4.30;;;0.82;;
68377;SDS011;55322;48.146;11.516;2023-12-20T07:07:29;6.37;;;1.00;;
68377;SDS011;55322;48.146;11.516;2023-12-20T07:09:54;3.78;;;0.80;;
68377;SDS011;55322;48.146;11.516;2023-12-20T07:12:20;4.43;;;0.90;;
68377;SDS011;55322;48.146;11.516;2023-12-20T07:14:45;7.10;;;1.30;;
68377;SDS011;55322;48.146;11.516;2023-12-20T07:17:11;4.47;;;0.82;;
68377;SDS011;55322;48.146;11.516;2023-12-20T07:19:38;4.70;;;0.88;;
68377;SDS011;55322;48.146;11.516;2023-12-20T07:22:05;4.93;;;0.80;;
68377;SDS011;55322;48.146;11.516;2023-12-20T07:24:31;6.95;;;0.90;;
68377;SDS011;55322;48.146;11.516;2023-12-20T07:26:56;4.97;;;0.83;;
68377;SDS011;55322;48.146;11.516;2023-12-20T07:29:22;5.47;;;0.70;;
68377;SDS011;55322;48.146;11.516;2023-12-20T07:31:47;4.97;;;0.80;;
68377;SDS011;55322;48.146;11.516;2023-12-20T07:34:13;4.10;;;0.70;;
68377;SDS011;55322;48.146;11.516;2023-12-20T07:36:38;4.97;;;0.70;;
68377;SDS011;55322;48.146;11.516;2023-12-20T07:39:03;3.80;;;0.70;;
68377;SDS011;55322;48.146;11.516;2023-12-20T07:41:29;3.80;;;0.67;;
68377;SDS011;55322;48.146;11.516;2023-12-20T07:43:54;3.60;;;0.60;;
68377;SDS011;55322;48.146;11.516;2023-12-20T07:46:21;3.13;;;0.50;;
68377;SDS011;55322;48.146;11.516;2023-12-20T07:48:49;5.72;;;0.65;;
68377;SDS011;55322;48.146;11.516;2023-12-20T07:51:15;4.57;;;0.70;;
68377;SDS011;55322;48.146;11.516;2023-12-20T07:53:41;3.50;;;0.70;;
68377;SDS011;55322;48.146;11.516;2023-12-20T07:56:19;3.70;;;0.50;;
68377;SDS011;55322;48.146;11.516;2023-12-20T07:58:45;4.03;;;0.60;;
68377;SDS011;55322;48.146;11.516;2023-12-20T08:01:11;3.22;;;0.60;;
68377;SDS011;55322;48.146;11.516;2023-12-20T08:03:37;3.40;;;0.57;;
68377;SDS011;55322;48.146;11.516;2023-12-20T08:06:03;4.68;;;0.70;;
68377;SDS011;55322;48.146;11.516;2023-12-20T08:08:29;5.13;;;0.60;;
68377;SDS011;55322;48.146;11.516;2023-12-20T08:10:54;2.67;;;0.40;;
68377;SDS011;55322;48.146;11.516;2023-12-20T08:13:19;4.50;;;0.50;;
68377;SDS011;55322;48.146;11.516;2023-12-20T08:15:45;3.40;;;0.50;;
68377;SDS011;55322;48.146;11.516;2023-12-20T08:18:10;2.67;;;0.40;;
68377;SDS011;55322;48.146;11.516;2023-12-20T08:20:36;4.10;;;0.50;;
68377;SDS011;55322;48.146;11.516;2023-12-20T08:23:01;2.87;;;0.40;;
68377;SDS011;55322;48.146;11.516;2023-12-20T08:25:26;2.90;;;0.40;;
68377;SDS011;55322;48.146;11.516;2023-12-20T08:27:52;2.80;;;0.40;;
68377;SDS011;55322;48.146;11.516;2023-12-20T08:30:18;3.33;;;0.50;;
68377;SDS011;55322;48.146;11.516;2023-12-20T08:32:46;3.37;;;0.50;;
68377;SDS011;55322;48.146;11.516;2023-12-20T08:35:12;3.03;;;0.50;;
68377;SDS011;55322;48.146;11.516;2023-12-20T08:37:38;2.70;;;0.40;;
68377;SDS011;55322;48.146;11.516;2023-12-20T08:40:03;3.37;;;0.50;;
68377;SDS011;55322;48.146;11.516;2023-12-20T08:42:29;4.03;;;0.52;;
68377;SDS011;55322;48.146;11.516;2023-12-20T08:44:56;3.15;;;0.50;;
68377;SDS011;55322;48.146;11.516;2023-12-20T08:47:23;4.53;;;0.55;;
68377;SDS011;55322;48.146;11.516;2023-12-20T08:49:48;4.47;;;0.67;;
68377;SDS011;55322;48.146;11.516;2023-12-20T08:52:14;3.70;;;0.60;;
68377;SDS011;55322;48.146;11.516;2023-12-20T08:54:39;3.87;;;0.50;;
68377;SDS011;55322;48.146;11.516;2023-12-20T08:57:04;3.13;;;0.50;;
68377;SDS011;55322;48.146;11.516;2023-12-20T08:59:31;3.47;;;0.88;;
68377;SDS011;55322;48.146;11.516;2023-12-20T09:01:57;3.65;;;0.50;;
68377;SDS011;55322;48.146;11.516;2023-12-20T09:04:22;3.33;;;0.50;;
68377;SDS011;55322;48.146;11.516;2023-12-20T09:06:48;3.20;;;0.53;;
68377;SDS011;55322;48.146;11.516;2023-12-20T09:09:13;4.03;;;0.50;;
68377;SDS011;55322;48.146;11.516;2023-12-20T09:11:39;2.72;;;0.50;;
68377;SDS011;55322;48.146;11.516;2023-12-20T09:14:05;4.83;;;0.63;;
68377;SDS011;55322;48.146;11.516;2023-12-20T09:16:30;3.63;;;0.45;;
68377;SDS011;55322;48.146;11.516;2023-12-20T09:18:56;3.50;;;0.60;;
68377;SDS011;55322;48.146;11.516;2023-12-20T09:21:22;3.83;;;0.50;;
68377;SDS011;55322;48.146;11.516;2023-12-20T09:23:47;3.30;;;0.50;;
68377;SDS011;55322;48.146;11.516;2023-12-20T09:26:13;4.50;;;0.60;;
68377;SDS011;55322;48.146;11.516;2023-12-20T09:28:38;3.23;;;0.60;;
68377;SDS011;55322;48.146;11.516;2023-12-20T09:31:05;3.72;;;0.60;;
68377;SDS011;55322;48.146;11.516;2023-12-20T09:33:30;3.53;;;0.50;;
68377;SDS011;55322;48.146;11.516;2023-12-20T09:35:56;3.50;;;0.50;;
68377;SDS011;55322;48.146;11.516;2023-12-20T09:38:22;3.23;;;0.60;;
68377;SDS011;55322;48.146;11.516;2023-12-20T09:40:47;3.53;;;0.70;;
68377;SDS011;55322;48.146;11.516;2023-12-20T09:43:18;3.07;;;0.50;;
68377;SDS011;55322;48.146;11.516;2023-12-20T09:45:46;2.70;;;0.50;;
68377;SDS011;55322;48.146;11.516;2023-12-20T09:48:12;3.13;;;0.55;;
68377;SDS011;55322;48.146;11.516;2023-12-20T09:50:39;3.80;;;0.60;;
68377;SDS011;55322;48.146;11.516;2023-12-20T09:53:05;4.32;;;0.63;;
68377;SDS011;55322;48.146;11.516;2023-12-20T09:55:35;3.88;;;0.50;;
68377;SDS011;55322;48.146;11.516;2023-12-20T09:58:01;4.00;;;0.60;;
68377;SDS011;55322;48.146;11.516;2023-12-20T10:00:27;3.77;;;0.67;;
68377;SDS011;55322;48.146;11.516;2023-12-20T10:02:56;3.22;;;0.63;;
68377;SDS011;55322;48.146;11.516;2023-12-20T10:05:27;3.50;;;0.60;;
68377;SDS011;55322;48.146;11.516;2023-12-20T10:07:53;3.35;;;0.60;;
68377;SDS011;55322;48.146;11.516;2023-12-20T10:10:19;3.65;;;0.60;;
68377;SDS011;55322;48.146;11.516;2023-12-20T10:13:00;3.50;;;0.60;;
68377;SDS011;55322;48.146;11.516;2023-12-20T10:15:29;4.05;;;0.60;;
68377;SDS011;55322;48.146;11.516;2023-12-20T10:17:56;3.60;;;0.70;;
68377;SDS011;55322;48.146;11.516;2023-12-20T10:20:22;4.00;;;0.77;;
68377;SDS011;55322;48.146;11.516;2023-12-20T10:22:47;3.57;;;0.80;;
68377;SDS011;55322;48.146;11.516;2023-12-20T10:25:14;4.72;;;0.68;;
68377;SDS011;55322;48.146;11.516;2023-12-20T10:27:39;3.40;;;0.60;;
68377;SDS011;55322;48.146;11.516;2023-12-20T10:30:04;4.05;;;0.82;;
68377;SDS011;55322;48.146;11.516;2023-12-20T10:32:30;3.77;;;0.67;;
68377;SDS011;55322;48.146;11.516;2023-12-20T10:34:56;3.72;;;0.70;;
68377;SDS011;55322;48.146;11.516;2023-12-20T10:37:22;3.07;;;0.50;;
68377;SDS011;55322;48.146;11.516;2023-12-20T10:39:51;3.80;;;0.80;;
68377;SDS011;55322;48.146;11.516;2023-12-20T10:42:22;4.80;;;0.73;;
68377;SDS011;55322;48.146;11.516;2023-12-20T10:44:51;3.27;;;0.60;;
68377;SDS011;55322;48.146;11.516;2023-12-20T10:47:16;3.22;;;0.60;;
68377;SDS011;55322;48.146;11.516;2023-12-20T10:49:42;4.17;;;0.60;;
68377;SDS011;55322;48.146;11.516;2023-12-20T10:52:09;3.45;;;0.50;;
68377;SDS011;55322;48.146;11.516;2023-12-20T10:54:36;3.33;;;0.55;;
68377;SDS011;55322;48.146;11.516;2023-12-20T10:57:03;3.53;;;0.70;;
68377;SDS011;55322;48.146;11.516;2023-12-20T10:59:30;3.63;;;0.70;;
68377;SDS011;55322;48.146;11.516;2023-12-20T11:01:58;3.25;;;0.52;;
68377;SDS011;55322;48.146;11.516;2023-12-20T11:04:36;3.30;;;0.60;;
68377;SDS011;55322;48.146;11.516;2023-12-20T11:07:08;3.60;;;0.60;;
68377;SDS011;55322;48.146;11.516;2023-12-20T11:09:45;4.18;;;0.80;;
68377;SDS011;55322;48.146;11.516;2023-12-20T11:12:22;4.63;;;0.80;;
68377;SDS011;55322;48.146;11.516;2023-12-20T11:15:00;5.13;;;0.85;;
68377;SDS011;55322;48.146;11.516;2023-12-20T11:17:29;5.05;;;1.10;;
68377;SDS011;55322;48.146;11.516;2023-12-20T11:22:21;4.57;;;0.93;;
68377;SDS011;55322;48.146;11.516;2023-12-20T11:24:49;5.05;;;1.02;;
68377;SDS011;55322;48.146;11.516;2023-12-20T11:27:15;4.35;;;0.90;;
68377;SDS011;55322;48.146;11.516;2023-12-20T11:29:41;5.53;;;1.00;;
68377;SDS011;55322;48.146;11.516;2023-12-20T11:32:28;4.10;;;1.00;;
68377;SDS011;55322;48.146;11.516;2023-12-20T11:35:26;3.95;;;1.00;;
68377;SDS011;55322;48.146;11.516;2023-12-20T11:37:45;5.00;;;1.13;;
68377;SDS011;55322;48.146;11.516;2023-12-20T11:40:15;4.75;;;1.23;;
68377;SDS011;55322;48.146;11.516;2023-12-20T11:42:43;4.30;;;0.97;;
68377;SDS011;55322;48.146;11.516;2023-12-20T11:45:14;5.20;;;1.23;;
68377;SDS011;55322;48.146;11.516;2023-12-20T11:47:42;4.78;;;1.27;;
68377;SDS011;55322;48.146;11.516;2023-12-20T11:50:10;4.70;;;1.20;;
68377;SDS011;55322;48.146;11.516;2023-12-20T11:52:35;4.63;;;1.17;;
68377;SDS011;55322;48.146;11.516;2023-12-20T11:55:01;5.30;;;1.35;;
68377;SDS011;55322;48.146;11.516;2023-12-20T11:57:26;4.20;;;0.90;;
68377;SDS011;55322;48.146;11.516;2023-12-20T11:59:52;3.83;;;0.80;;
68377;SDS011;55322;48.146;11.516;2023-12-20T12:02:17;4.07;;;0.97;;
68377;SDS011;55322;48.146;11.516;2023-12-20T12:04:42;4.00;;;0.90;;
68377;SDS011;55322;48.146;11.516;2023-12-20T12:07:08;4.07;;;1.00;;
68377;SDS011;55322;48.146;11.516;2023-12-20T12:09:34;3.87;;;0.87;;
68377;SDS011;55322;48.146;11.516;2023-12-20T12:12:00;4.20;;;0.90;;
68377;SDS011;55322;48.146;11.516;2023-12-20T12:14:25;4.40;;;1.00;;
68377;SDS011;55322;48.146;11.516;2023-12-20T12:16:51;3.50;;;0.87;;
68377;SDS011;55322;48.146;11.516;2023-12-20T12:19:24;3.83;;;0.70;;
68377;SDS011;55322;48.146;11.516;2023-12-20T12:21:51;3.60;;;0.80;;
68377;SDS011;55322;48.146;11.516;2023-12-20T12:24:41;4.13;;;0.88;;
68377;SDS011;55322;48.146;11.516;2023-12-20T12:27:11;4.20;;;0.90;;
68377;SDS011;55322;48.146;11.516;2023-12-20T12:29:38;5.28;;;1.17;;
68377;SDS011;55322;48.146;11.516;2023-12-20T12:32:07;3.97;;;0.90;;
68377;SDS011;55322;48.146;11.516;2023-12-20T12:34:33;4.72;;;1.00;;
68377;SDS011;55322;48.146;11.516;2023-12-20T12:36:59;3.50;;;0.80;;
68377;SDS011;55322;48.146;11.516;2023-12-20T12:39:25;5.80;;;0.90;;
68377;SDS011;55322;48.146;11.516;2023-12-20T12:41:51;4.10;;;0.83;;
68377;SDS011;55322;48.146;11.516;2023-12-20T12:44:16;4.30;;;0.80;;
68377;SDS011;55322;48.146;11.516;2023-12-20T12:46:42;4.10;;;0.82;;
68377;SDS011;55322;48.146;11.516;2023-12-20T12:49:11;3.97;;;0.95;;
68377;SDS011;55322;48.146;11.516;2023-12-20T12:51:36;4.20;;;1.00;;
68377;SDS011;55322;48.146;11.516;2023-12-20T12:54:02;4.93;;;0.87;;
68377;SDS011;55322;48.146;11.516;2023-12-20T12:56:28;4.47;;;0.90;;
68377;SDS011;55322;48.146;11.516;2023-12-20T12:58:54;4.40;;;1.10;;
68377;SDS011;55322;48.146;11.516;2023-12-20T13:01:19;3.85;;;0.90;;
68377;SDS011;55322;48.146;11.516;2023-12-20T13:03:44;4.30;;;1.10;;
68377;SDS011;55322;48.146;11.516;2023-12-20T13:06:10;4.43;;;1.03;;
68377;SDS011;55322;48.146;11.516;2023-12-20T13:08:35;4.23;;;1.17;;
68377;SDS011;55322;48.146;11.516;2023-12-20T13:11:00;5.03;;;1.37;;
68377;SDS011;55322;48.146;11.516;2023-12-20T13:13:29;5.03;;;1.10;;
68377;SDS011;55322;48.146;11.516;2023-12-20T13:15:55;4.70;;;1.00;;
68377;SDS011;55322;48.146;11.516;2023-12-20T13:18:20;4.67;;;1.10;;
68377;SDS011;55322;48.146;11.516;2023-12-20T13:20:47;5.13;;;1.17;;
68377;SDS011;55322;48.146;11.516;2023-12-20T13:23:12;6.40;;;1.13;;
68377;SDS011;55322;48.146;11.516;2023-12-20T13:25:38;4.88;;;1.05;;
68377;SDS011;55322;48.146;11.516;2023-12-20T13:28:04;4.60;;;1.27;;
68377;SDS011;55322;48.146;11.516;2023-12-20T13:30:29;5.63;;;1.07;;
68377;SDS011;55322;48.146;11.516;2023-12-20T13:32:55;5.73;;;1.07;;
68377;SDS011;55322;48.146;11.516;2023-12-20T13:35:20;7.47;;;1.30;;
68377;SDS011;55322;48.146;11.516;2023-12-20T13:37:46;5.80;;;1.27;;
68377;SDS011;55322;48.146;11.516;2023-12-20T13:40:11;4.88;;;1.00;;
68377;SDS011;55322;48.146;11.516;2023-12-20T13:42:37;5.05;;;1.13;;
68377;SDS011;55322;48.146;11.516;2023-12-20T13:45:03;7.17;;;1.20;;
68377;SDS011;55322;48.146;11.516;2023-12-20T13:47:30;6.28;;;1.40;;
68377;SDS011;55322;48.146;11.516;2023-12-20T13:49:56;6.15;;;1.20;;
68377;SDS011;55322;48.146;11.516;2023-12-20T13:52:21;6.43;;;1.30;;
68377;SDS011;55322;48.146;11.516;2023-12-20T13:54:46;7.37;;;1.43;;
68377;SDS011;55322;48.146;11.516;2023-12-20T13:57:12;5.53;;;1.10;;
68377;SDS011;55322;48.146;11.516;2023-12-20T13:59:38;5.53;;;1.20;;
68377;SDS011;55322;48.146;11.516;2023-12-20T14:02:03;5.30;;;1.20;;
68377;SDS011;55322;48.146;11.516;2023-12-20T14:04:29;7.97;;;1.20;;
68377;SDS011;55322;48.146;11.516;2023-12-20T14:06:54;7.97;;;1.40;;
68377;SDS011;55322;48.146;11.516;2023-12-20T14:09:20;5.87;;;1.13;;
68377;SDS011;55322;48.146;11.516;2023-12-20T14:11:45;4.85;;;1.13;;
68377;SDS011;55322;48.146;11.516;2023-12-20T14:14:11;4.87;;;1.00;;
68377;SDS011;55322;48.146;11.516;2023-12-20T14:16:36;6.47;;;1.10;;
68377;SDS011;55322;48.146;11.516;2023-12-20T14:19:03;6.35;;;1.15;;
68377;SDS011;55322;48.146;11.516;2023-12-20T14:21:28;5.20;;;0.82;;
68377;SDS011;55322;48.146;11.516;2023-12-20T14:23:54;7.00;;;1.07;;
68377;SDS011;55322;48.146;11.516;2023-12-20T14:26:19;7.47;;;1.10;;
68377;SDS011;55322;48.146;11.516;2023-12-20T14:28:45;5.90;;;1.20;;